sensor_id;sensor_type;location;lat;lon;timestamp;P1;durP1;ratioP1;P2;durP2;ratioP2
18104;SDS011;9179;50.968;3.134;2023-07-29T00:00:43;1.90;;;1.80;;
18104;SDS011;9179;50.968;3.134;2023-07-29T00:03:10;2.70;;;2.45;;
18104;SDS011;9179;50.968;3.134;2023-07-29T00:05:37;2.75;;;2.35;;
18104;SDS011;9179;50.968;3.134;2023-07-29T00:08:04;2.22;;;2.13;;
18104;SDS011;9179;50.968;3.134;2023-07-29T00:10:31;3.13;;;2.22;;
18104;SDS011;9179;50.968;3.134;2023-07-29T00:13:03;2.42;;;2.22;;
18104;SDS011;9179;50.968;3.134;2023-07-29T00:15:30;2.90;;;2.58;;
18104;SDS011;9179;50.968;3.134;2023-07-29T00:17:57;2.45;;;2.25;;
18104;SDS011;9179;50.968;3.134;2023-07-29T00:20:24;2.67;;;2.47;;
18104;SDS011;9179;50.968;3.134;2023-07-29T00:22:51;2.90;;;2.70;;
18104;SDS011;9179;50.968;3.134;2023-07-29T00:25:19;2.45;;;2.25;;
18104;SDS011;9179;50.968;3.134;2023-07-29T00:27:46;3.80;;;2.33;;
18104;SDS011;9179;50.968;3.134;2023-07-29T00:30:14;3.63;;;2.65;;
18104;SDS011;9179;50.968;3.134;2023-07-29T00:32:41;3.15;;;2.83;;
18104;SDS011;9179;50.968;3.134;2023-07-29T00:35:08;3.83;;;3.05;;
18104;SDS011;9179;50.968;3.134;2023-07-29T00:37:35;4.53;;;3.28;;
18104;SDS011;9179;50.968;3.134;2023-07-29T00:40:04;2.90;;;2.60;;
18104;SDS011;9179;50.968;3.134;2023-07-29T00:42:35;3.40;;;2.45;;
18104;SDS011;9179;50.968;3.134;2023-07-29T00:45:02;3.75;;;3.45;;
18104;SDS011;9179;50.968;3.134;2023-07-29T00:47:32;3.13;;;2.90;;
18104;SDS011;9179;50.968;3.134;2023-07-29T00:49:59;3.67;;;3.35;;
18104;SDS011;9179;50.968;3.134;2023-07-29T00:52:26;3.10;;;2.80;;
18104;SDS011;9179;50.968;3.134;2023-07-29T00:54:53;3.72;;;3.42;;
18104;SDS011;9179;50.968;3.134;2023-07-29T00:57:20;3.30;;;2.90;;
18104;SDS011;9179;50.968;3.134;2023-07-29T00:59:47;4.38;;;3.60;;
18104;SDS011;9179;50.968;3.134;2023-07-29T01:02:15;3.33;;;2.58;;
18104;SDS011;9179;50.968;3.134;2023-07-29T01:04:43;3.55;;;3.25;;
18104;SDS011;9179;50.968;3.134;2023-07-29T01:07:12;6.35;;;3.42;;
18104;SDS011;9179;50.968;3.134;2023-07-29T01:09:48;6.18;;;3.13;;
18104;SDS011;9179;50.968;3.134;2023-07-29T01:12:24;3.30;;;3.05;;
18104;SDS011;9179;50.968;3.134;2023-07-29T01:14:58;3.20;;;2.90;;
18104;SDS011;9179;50.968;3.134;2023-07-29T01:17:33;3.55;;;3.22;;
18104;SDS011;9179;50.968;3.134;2023-07-29T01:20:04;4.35;;;2.70;;
18104;SDS011;9179;50.968;3.134;2023-07-29T01:22:35;3.55;;;2.90;;
18104;SDS011;9179;50.968;3.134;2023-07-29T01:25:06;4.05;;;3.60;;
18104;SDS011;9179;50.968;3.134;2023-07-29T01:27:33;4.93;;;3.25;;
18104;SDS011;9179;50.968;3.134;2023-07-29T01:30:00;3.47;;;3.17;;
18104;SDS011;9179;50.968;3.134;2023-07-29T01:32:29;3.10;;;2.90;;
18104;SDS011;9179;50.968;3.134;2023-07-29T01:35:03;5.20;;;3.28;;
18104;SDS011;9179;50.968;3.134;2023-07-29T01:37:36;4.60;;;3.35;;
18104;SDS011;9179;50.968;3.134;2023-07-29T01:40:07;5.20;;;3.38;;
18104;SDS011;9179;50.968;3.134;2023-07-29T01:42:36;3.55;;;3.20;;
18104;SDS011;9179;50.968;3.134;2023-07-29T01:45:04;3.60;;;3.30;;
18104;SDS011;9179;50.968;3.134;2023-07-29T01:47:31;3.55;;;3.17;;
18104;SDS011;9179;50.968;3.134;2023-07-29T01:49:58;3.33;;;2.85;;
18104;SDS011;9179;50.968;3.134;2023-07-29T01:52:25;2.90;;;2.70;;
18104;SDS011;9179;50.968;3.134;2023-07-29T01:54:52;3.75;;;3.15;;
18104;SDS011;9179;50.968;3.134;2023-07-29T01:57:20;2.83;;;2.63;;
18104;SDS011;9179;50.968;3.134;2023-07-29T01:59:47;4.93;;;3.38;;
18104;SDS011;9179;50.968;3.134;2023-07-29T02:02:14;6.13;;;3.33;;
18104;SDS011;9179;50.968;3.134;2023-07-29T02:04:41;3.75;;;2.83;;
18104;SDS011;9179;50.968;3.134;2023-07-29T02:07:08;4.25;;;3.20;;
18104;SDS011;9179;50.968;3.134;2023-07-29T02:09:35;3.35;;;3.03;;
18104;SDS011;9179;50.968;3.134;2023-07-29T02:12:02;4.32;;;2.75;;
18104;SDS011;9179;50.968;3.134;2023-07-29T02:14:30;3.17;;;2.88;;
18104;SDS011;9179;50.968;3.134;2023-07-29T02:16:57;3.05;;;2.75;;
18104;SDS011;9179;50.968;3.134;2023-07-29T02:19:24;4.90;;;3.13;;
18104;SDS011;9179;50.968;3.134;2023-07-29T02:21:51;2.88;;;2.67;;
18104;SDS011;9179;50.968;3.134;2023-07-29T02:24:18;5.20;;;3.10;;
18104;SDS011;9179;50.968;3.134;2023-07-29T02:26:44;3.58;;;2.97;;
18104;SDS011;9179;50.968;3.134;2023-07-29T02:29:11;4.72;;;3.20;;
18104;SDS011;9179;50.968;3.134;2023-07-29T02:31:39;2.78;;;2.55;;
18104;SDS011;9179;50.968;3.134;2023-07-29T02:34:06;2.97;;;2.78;;
18104;SDS011;9179;50.968;3.134;2023-07-29T02:36:33;3.42;;;3.13;;
18104;SDS011;9179;50.968;3.134;2023-07-29T02:39:00;4.65;;;2.78;;
18104;SDS011;9179;50.968;3.134;2023-07-29T02:41:27;3.65;;;3.30;;
18104;SDS011;9179;50.968;3.134;2023-07-29T02:43:54;3.42;;;2.92;;
18104;SDS011;9179;50.968;3.134;2023-07-29T02:46:21;3.53;;;3.28;;
18104;SDS011;9179;50.968;3.134;2023-07-29T02:48:49;3.50;;;2.83;;
18104;SDS011;9179;50.968;3.134;2023-07-29T02:51:16;4.68;;;3.20;;
18104;SDS011;9179;50.968;3.134;2023-07-29T02:53:43;4.57;;;3.50;;
18104;SDS011;9179;50.968;3.134;2023-07-29T02:56:10;3.63;;;3.30;;
18104;SDS011;9179;50.968;3.134;2023-07-29T02:58:37;6.05;;;3.55;;
18104;SDS011;9179;50.968;3.134;2023-07-29T03:01:05;3.85;;;3.42;;
18104;SDS011;9179;50.968;3.134;2023-07-29T03:03:32;4.55;;;2.88;;
18104;SDS011;9179;50.968;3.134;2023-07-29T03:06:01;3.15;;;2.90;;
18104;SDS011;9179;50.968;3.134;2023-07-29T03:08:29;3.60;;;3.03;;
18104;SDS011;9179;50.968;3.134;2023-07-29T03:10:56;3.80;;;3.00;;
18104;SDS011;9179;50.968;3.134;2023-07-29T03:13:23;2.92;;;2.70;;
18104;SDS011;9179;50.968;3.134;2023-07-29T03:15:50;3.22;;;2.80;;
18104;SDS011;9179;50.968;3.134;2023-07-29T03:18:17;2.55;;;2.35;;
18104;SDS011;9179;50.968;3.134;2023-07-29T03:20:44;2.80;;;2.60;;
18104;SDS011;9179;50.968;3.134;2023-07-29T03:23:12;3.33;;;3.03;;
18104;SDS011;9179;50.968;3.134;2023-07-29T03:25:39;3.50;;;3.20;;
18104;SDS011;9179;50.968;3.134;2023-07-29T03:28:06;3.95;;;3.20;;
18104;SDS011;9179;50.968;3.134;2023-07-29T03:30:33;2.30;;;2.17;;
18104;SDS011;9179;50.968;3.134;2023-07-29T03:33:00;3.40;;;3.08;;
18104;SDS011;9179;50.968;3.134;2023-07-29T03:35:27;3.13;;;2.88;;
18104;SDS011;9179;50.968;3.134;2023-07-29T03:37:53;3.20;;;2.97;;
18104;SDS011;9179;50.968;3.134;2023-07-29T03:40:22;3.45;;;2.90;;
18104;SDS011;9179;50.968;3.134;2023-07-29T03:42:49;3.33;;;2.65;;
18104;SDS011;9179;50.968;3.134;2023-07-29T03:45:16;3.35;;;3.00;;
18104;SDS011;9179;50.968;3.134;2023-07-29T03:47:42;3.60;;;3.30;;
18104;SDS011;9179;50.968;3.134;2023-07-29T03:50:09;3.80;;;3.42;;
18104;SDS011;9179;50.968;3.134;2023-07-29T03:52:36;3.30;;;2.83;;
18104;SDS011;9179;50.968;3.134;2023-07-29T03:55:03;5.93;;;3.33;;
18104;SDS011;9179;50.968;3.134;2023-07-29T03:57:32;3.22;;;2.92;;
18104;SDS011;9179;50.968;3.134;2023-07-29T03:59:59;6.82;;;3.63;;
18104;SDS011;9179;50.968;3.134;2023-07-29T04:02:26;3.13;;;2.90;;
18104;SDS011;9179;50.968;3.134;2023-07-29T04:04:52;5.28;;;4.20;;
18104;SDS011;9179;50.968;3.134;2023-07-29T04:07:19;4.95;;;3.80;;
18104;SDS011;9179;50.968;3.134;2023-07-29T04:09:46;3.95;;;3.20;;
18104;SDS011;9179;50.968;3.134;2023-07-29T04:12:14;4.93;;;3.63;;
18104;SDS011;9179;50.968;3.134;2023-07-29T04:14:42;4.53;;;3.45;;
18104;SDS011;9179;50.968;3.134;2023-07-29T04:17:09;2.88;;;2.53;;
18104;SDS011;9179;50.968;3.134;2023-07-29T04:19:36;4.05;;;3.65;;
18104;SDS011;9179;50.968;3.134;2023-07-29T04:22:03;4.20;;;3.75;;
18104;SDS011;9179;50.968;3.134;2023-07-29T04:24:30;5.45;;;3.97;;
18104;SDS011;9179;50.968;3.134;2023-07-29T04:26:56;3.85;;;2.95;;
18104;SDS011;9179;50.968;3.134;2023-07-29T04:29:24;4.53;;;3.63;;
18104;SDS011;9179;50.968;3.134;2023-07-29T04:31:52;5.13;;;3.88;;
18104;SDS011;9179;50.968;3.134;2023-07-29T04:34:19;5.03;;;3.53;;
18104;SDS011;9179;50.968;3.134;2023-07-29T04:36:46;3.40;;;3.10;;
18104;SDS011;9179;50.968;3.134;2023-07-29T04:39:13;4.18;;;3.47;;
18104;SDS011;9179;50.968;3.134;2023-07-29T04:41:41;4.32;;;3.55;;
18104;SDS011;9179;50.968;3.134;2023-07-29T04:44:07;3.53;;;3.17;;
18104;SDS011;9179;50.968;3.134;2023-07-29T04:46:35;3.22;;;3.03;;
18104;SDS011;9179;50.968;3.134;2023-07-29T04:49:05;3.60;;;3.13;;
18104;SDS011;9179;50.968;3.134;2023-07-29T04:51:31;2.85;;;2.65;;
18104;SDS011;9179;50.968;3.134;2023-07-29T04:53:58;3.55;;;3.03;;
18104;SDS011;9179;50.968;3.134;2023-07-29T04:56:26;3.35;;;3.05;;
18104;SDS011;9179;50.968;3.134;2023-07-29T04:58:53;4.30;;;3.28;;
18104;SDS011;9179;50.968;3.134;2023-07-29T05:01:20;3.05;;;2.78;;
18104;SDS011;9179;50.968;3.134;2023-07-29T05:03:47;3.42;;;2.88;;
18104;SDS011;9179;50.968;3.134;2023-07-29T05:06:15;2.95;;;2.75;;
18104;SDS011;9179;50.968;3.134;2023-07-29T05:08:42;3.50;;;3.13;;
18104;SDS011;9179;50.968;3.134;2023-07-29T05:11:09;3.15;;;2.75;;
18104;SDS011;9179;50.968;3.134;2023-07-29T05:13:36;3.40;;;2.40;;
18104;SDS011;9179;50.968;3.134;2023-07-29T05:16:04;2.47;;;2.28;;
18104;SDS011;9179;50.968;3.134;2023-07-29T05:18:30;3.47;;;2.95;;
18104;SDS011;9179;50.968;3.134;2023-07-29T05:20:57;2.33;;;2.13;;
18104;SDS011;9179;50.968;3.134;2023-07-29T05:23:26;2.15;;;2.03;;
18104;SDS011;9179;50.968;3.134;2023-07-29T05:25:52;4.25;;;2.90;;
18104;SDS011;9179;50.968;3.134;2023-07-29T05:28:19;2.40;;;2.30;;
18104;SDS011;9179;50.968;3.134;2023-07-29T05:30:46;3.85;;;2.90;;
18104;SDS011;9179;50.968;3.134;2023-07-29T05:33:13;4.10;;;2.10;;
18104;SDS011;9179;50.968;3.134;2023-07-29T05:35:40;5.15;;;2.30;;
18104;SDS011;9179;50.968;3.134;2023-07-29T05:38:07;3.22;;;2.63;;
18104;SDS011;9179;50.968;3.134;2023-07-29T05:40:36;2.17;;;1.75;;
18104;SDS011;9179;50.968;3.134;2023-07-29T05:43:03;3.22;;;2.47;;
18104;SDS011;9179;50.968;3.134;2023-07-29T05:45:29;2.20;;;2.00;;
18104;SDS011;9179;50.968;3.134;2023-07-29T05:47:57;2.00;;;1.90;;
18104;SDS011;9179;50.968;3.134;2023-07-29T05:50:23;2.15;;;1.95;;
18104;SDS011;9179;50.968;3.134;2023-07-29T05:52:50;3.33;;;2.83;;
18104;SDS011;9179;50.968;3.134;2023-07-29T05:55:17;3.33;;;2.20;;
18104;SDS011;9179;50.968;3.134;2023-07-29T05:57:46;2.33;;;1.80;;
18104;SDS011;9179;50.968;3.134;2023-07-29T06:00:12;2.05;;;1.85;;
18104;SDS011;9179;50.968;3.134;2023-07-29T06:02:40;2.05;;;1.90;;
18104;SDS011;9179;50.968;3.134;2023-07-29T06:05:07;3.55;;;1.95;;
18104;SDS011;9179;50.968;3.134;2023-07-29T06:07:34;2.17;;;2.00;;
18104;SDS011;9179;50.968;3.134;2023-07-29T06:10:01;1.80;;;1.70;;
18104;SDS011;9179;50.968;3.134;2023-07-29T06:12:28;4.00;;;1.67;;
18104;SDS011;9179;50.968;3.134;2023-07-29T06:14:56;2.88;;;1.95;;
18104;SDS011;9179;50.968;3.134;2023-07-29T06:17:23;1.58;;;1.48;;
18104;SDS011;9179;50.968;3.134;2023-07-29T06:19:50;4.75;;;1.92;;
18104;SDS011;9179;50.968;3.134;2023-07-29T06:22:17;2.10;;;1.63;;
18104;SDS011;9179;50.968;3.134;2023-07-29T06:24:44;1.65;;;1.55;;
18104;SDS011;9179;50.968;3.134;2023-07-29T06:27:11;1.83;;;1.70;;
18104;SDS011;9179;50.968;3.134;2023-07-29T06:29:38;1.98;;;1.88;;
18104;SDS011;9179;50.968;3.134;2023-07-29T06:32:06;2.47;;;1.83;;
18104;SDS011;9179;50.968;3.134;2023-07-29T06:34:33;2.40;;;1.80;;
18104;SDS011;9179;50.968;3.134;2023-07-29T06:37:00;1.65;;;1.55;;
18104;SDS011;9179;50.968;3.134;2023-07-29T06:39:27;2.67;;;1.77;;
18104;SDS011;9179;50.968;3.134;2023-07-29T06:41:54;1.60;;;1.50;;
18104;SDS011;9179;50.968;3.134;2023-07-29T06:44:21;6.85;;;1.90;;
18104;SDS011;9179;50.968;3.134;2023-07-29T06:46:48;1.77;;;1.60;;
18104;SDS011;9179;50.968;3.134;2023-07-29T06:49:16;3.00;;;1.80;;
18104;SDS011;9179;50.968;3.134;2023-07-29T06:51:43;2.00;;;1.60;;
18104;SDS011;9179;50.968;3.134;2023-07-29T06:54:10;1.58;;;1.48;;
18104;SDS011;9179;50.968;3.134;2023-07-29T06:56:37;2.92;;;1.90;;
18104;SDS011;9179;50.968;3.134;2023-07-29T06:59:03;2.38;;;1.83;;
18104;SDS011;9179;50.968;3.134;2023-07-29T07:01:30;2.08;;;1.83;;
18104;SDS011;9179;50.968;3.134;2023-07-29T07:03:57;2.28;;;1.48;;
18104;SDS011;9179;50.968;3.134;2023-07-29T07:06:25;2.15;;;1.88;;
18104;SDS011;9179;50.968;3.134;2023-07-29T07:08:52;2.72;;;1.45;;
18104;SDS011;9179;50.968;3.134;2023-07-29T07:11:19;2.10;;;1.90;;
18104;SDS011;9179;50.968;3.134;2023-07-29T07:13:46;2.55;;;1.70;;
18104;SDS011;9179;50.968;3.134;2023-07-29T07:16:13;1.73;;;1.58;;
18104;SDS011;9179;50.968;3.134;2023-07-29T07:18:39;2.55;;;1.50;;
18104;SDS011;9179;50.968;3.134;2023-07-29T07:21:06;1.50;;;1.40;;
18104;SDS011;9179;50.968;3.134;2023-07-29T07:23:35;1.60;;;1.27;;
18104;SDS011;9179;50.968;3.134;2023-07-29T07:26:01;1.77;;;1.67;;
18104;SDS011;9179;50.968;3.134;2023-07-29T07:28:28;1.55;;;1.45;;
18104;SDS011;9179;50.968;3.134;2023-07-29T07:30:55;1.65;;;1.40;;
18104;SDS011;9179;50.968;3.134;2023-07-29T07:33:23;2.05;;;1.60;;
18104;SDS011;9179;50.968;3.134;2023-07-29T07:35:50;1.52;;;1.40;;
18104;SDS011;9179;50.968;3.134;2023-07-29T07:38:17;1.60;;;1.50;;
18104;SDS011;9179;50.968;3.134;2023-07-29T07:40:53;1.70;;;1.58;;
18104;SDS011;9179;50.968;3.134;2023-07-29T07:43:21;1.67;;;1.45;;
18104;SDS011;9179;50.968;3.134;2023-07-29T07:45:47;3.35;;;1.90;;
18104;SDS011;9179;50.968;3.134;2023-07-29T07:48:14;1.77;;;1.67;;
18104;SDS011;9179;50.968;3.134;2023-07-29T07:50:41;2.80;;;1.52;;
18104;SDS011;9179;50.968;3.134;2023-07-29T07:53:08;2.78;;;1.90;;
18104;SDS011;9179;50.968;3.134;2023-07-29T07:55:35;2.58;;;1.90;;
18104;SDS011;9179;50.968;3.134;2023-07-29T07:58:04;1.88;;;1.73;;
18104;SDS011;9179;50.968;3.134;2023-07-29T08:00:31;2.22;;;1.85;;
18104;SDS011;9179;50.968;3.134;2023-07-29T08:02:57;2.03;;;1.83;;
18104;SDS011;9179;50.968;3.134;2023-07-29T08:05:24;2.15;;;1.95;;
18104;SDS011;9179;50.968;3.134;2023-07-29T08:07:51;4.00;;;2.55;;
18104;SDS011;9179;50.968;3.134;2023-07-29T08:10:18;2.30;;;2.00;;
18104;SDS011;9179;50.968;3.134;2023-07-29T08:12:45;1.75;;;1.65;;
18104;SDS011;9179;50.968;3.134;2023-07-29T08:15:13;2.35;;;2.15;;
18104;SDS011;9179;50.968;3.134;2023-07-29T08:17:40;2.53;;;1.80;;
18104;SDS011;9179;50.968;3.134;2023-07-29T08:20:08;2.63;;;1.70;;
18104;SDS011;9179;50.968;3.134;2023-07-29T08:22:35;2.45;;;2.25;;
18104;SDS011;9179;50.968;3.134;2023-07-29T08:25:02;2.13;;;1.98;;
18104;SDS011;9179;50.968;3.134;2023-07-29T08:27:29;3.55;;;2.08;;
18104;SDS011;9179;50.968;3.134;2023-07-29T08:29:56;3.83;;;2.03;;
18104;SDS011;9179;50.968;3.134;2023-07-29T08:32:24;2.08;;;1.98;;
18104;SDS011;9179;50.968;3.134;2023-07-29T08:34:51;2.30;;;1.58;;
18104;SDS011;9179;50.968;3.134;2023-07-29T08:37:18;2.00;;;1.80;;
18104;SDS011;9179;50.968;3.134;2023-07-29T08:39:45;2.38;;;2.17;;
18104;SDS011;9179;50.968;3.134;2023-07-29T08:42:12;2.55;;;2.35;;
18104;SDS011;9179;50.968;3.134;2023-07-29T08:44:41;2.35;;;2.15;;
18104;SDS011;9179;50.968;3.134;2023-07-29T08:47:09;2.30;;;2.10;;
18104;SDS011;9179;50.968;3.134;2023-07-29T08:49:39;2.58;;;2.05;;
18104;SDS011;9179;50.968;3.134;2023-07-29T08:52:07;2.63;;;2.40;;
18104;SDS011;9179;50.968;3.134;2023-07-29T08:54:35;2.45;;;2.00;;
18104;SDS011;9179;50.968;3.134;2023-07-29T08:57:03;3.30;;;2.28;;
18104;SDS011;9179;50.968;3.134;2023-07-29T08:59:30;2.47;;;2.28;;
18104;SDS011;9179;50.968;3.134;2023-07-29T09:01:57;2.30;;;2.10;;
18104;SDS011;9179;50.968;3.134;2023-07-29T09:04:25;2.97;;;2.20;;
18104;SDS011;9179;50.968;3.134;2023-07-29T09:06:55;3.40;;;2.53;;
18104;SDS011;9179;50.968;3.134;2023-07-29T09:09:22;3.50;;;2.50;;
18104;SDS011;9179;50.968;3.134;2023-07-29T09:11:49;2.67;;;2.47;;
18104;SDS011;9179;50.968;3.134;2023-07-29T09:14:17;2.90;;;2.70;;
18104;SDS011;9179;50.968;3.134;2023-07-29T09:16:44;2.97;;;2.72;;
18104;SDS011;9179;50.968;3.134;2023-07-29T09:19:12;2.28;;;1.88;;
18104;SDS011;9179;50.968;3.134;2023-07-29T09:21:39;2.72;;;2.53;;
18104;SDS011;9179;50.968;3.134;2023-07-29T09:24:07;2.83;;;2.17;;
18104;SDS011;9179;50.968;3.134;2023-07-29T09:26:35;2.42;;;2.33;;
18104;SDS011;9179;50.968;3.134;2023-07-29T09:29:02;2.17;;;2.03;;
18104;SDS011;9179;50.968;3.134;2023-07-29T09:31:29;2.15;;;2.05;;
18104;SDS011;9179;50.968;3.134;2023-07-29T09:33:56;3.00;;;2.20;;
18104;SDS011;9179;50.968;3.134;2023-07-29T09:36:24;2.53;;;2.00;;
18104;SDS011;9179;50.968;3.134;2023-07-29T09:38:52;5.95;;;2.47;;
18104;SDS011;9179;50.968;3.134;2023-07-29T09:41:23;2.83;;;2.55;;
18104;SDS011;9179;50.968;3.134;2023-07-29T09:43:54;2.38;;;2.25;;
18104;SDS011;9179;50.968;3.134;2023-07-29T09:46:23;2.80;;;2.50;;
18104;SDS011;9179;50.968;3.134;2023-07-29T09:48:52;2.08;;;1.98;;
18104;SDS011;9179;50.968;3.134;2023-07-29T09:51:19;2.58;;;2.38;;
18104;SDS011;9179;50.968;3.134;2023-07-29T09:53:47;2.35;;;2.25;;
18104;SDS011;9179;50.968;3.134;2023-07-29T09:56:14;2.25;;;2.05;;
18104;SDS011;9179;50.968;3.134;2023-07-29T09:58:43;2.33;;;2.13;;
18104;SDS011;9179;50.968;3.134;2023-07-29T10:01:11;2.50;;;2.22;;
18104;SDS011;9179;50.968;3.134;2023-07-29T10:03:39;2.35;;;2.17;;
18104;SDS011;9179;50.968;3.134;2023-07-29T10:06:06;1.95;;;1.77;;
18104;SDS011;9179;50.968;3.134;2023-07-29T10:08:33;2.28;;;2.03;;
18104;SDS011;9179;50.968;3.134;2023-07-29T10:11:03;2.35;;;2.10;;
18104;SDS011;9179;50.968;3.134;2023-07-29T10:13:32;2.22;;;2.13;;
18104;SDS011;9179;50.968;3.134;2023-07-29T10:16:01;2.03;;;1.92;;
18104;SDS011;9179;50.968;3.134;2023-07-29T10:18:30;2.10;;;1.90;;
18104;SDS011;9179;50.968;3.134;2023-07-29T10:20:59;2.47;;;2.00;;
18104;SDS011;9179;50.968;3.134;2023-07-29T10:23:27;2.10;;;1.58;;
18104;SDS011;9179;50.968;3.134;2023-07-29T10:26:05;1.67;;;1.58;;
18104;SDS011;9179;50.968;3.134;2023-07-29T10:28:36;1.83;;;1.70;;
18104;SDS011;9179;50.968;3.134;2023-07-29T10:31:07;2.35;;;2.15;;
18104;SDS011;9179;50.968;3.134;2023-07-29T10:33:34;1.58;;;1.48;;
18104;SDS011;9179;50.968;3.134;2023-07-29T10:36:03;1.83;;;1.73;;
18104;SDS011;9179;50.968;3.134;2023-07-29T10:38:31;1.55;;;1.45;;
18104;SDS011;9179;50.968;3.134;2023-07-29T10:40:58;2.53;;;1.60;;
18104;SDS011;9179;50.968;3.134;2023-07-29T10:43:26;1.73;;;1.63;;
18104;SDS011;9179;50.968;3.134;2023-07-29T10:45:57;2.22;;;1.70;;
18104;SDS011;9179;50.968;3.134;2023-07-29T10:48:42;2.35;;;1.88;;
18104;SDS011;9179;50.968;3.134;2023-07-29T10:53:54;3.03;;;2.00;;
18104;SDS011;9179;50.968;3.134;2023-07-29T10:56:29;1.80;;;1.65;;
18104;SDS011;9179;50.968;3.134;2023-07-29T10:58:58;2.63;;;2.05;;
18104;SDS011;9179;50.968;3.134;2023-07-29T11:01:29;1.88;;;1.40;;
18104;SDS011;9179;50.968;3.134;2023-07-29T11:07:01;1.45;;;1.35;;
18104;SDS011;9179;50.968;3.134;2023-07-29T11:09:53;1.23;;;1.17;;
18104;SDS011;9179;50.968;3.134;2023-07-29T11:12:35;2.03;;;1.27;;
18104;SDS011;9179;50.968;3.134;2023-07-29T11:15:04;1.85;;;1.17;;
18104;SDS011;9179;50.968;3.134;2023-07-29T11:17:39;1.58;;;1.20;;
18104;SDS011;9179;50.968;3.134;2023-07-29T11:20:09;1.90;;;1.20;;
18104;SDS011;9179;50.968;3.134;2023-07-29T11:22:37;1.20;;;1.02;;
18104;SDS011;9179;50.968;3.134;2023-07-29T11:25:04;1.30;;;1.20;;
18104;SDS011;9179;50.968;3.134;2023-07-29T11:27:33;1.23;;;0.95;;
18104;SDS011;9179;50.968;3.134;2023-07-29T11:30:00;1.27;;;1.20;;
18104;SDS011;9179;50.968;3.134;2023-07-29T11:32:30;2.25;;;1.13;;
18104;SDS011;9179;50.968;3.134;2023-07-29T11:35:01;3.53;;;1.08;;
18104;SDS011;9179;50.968;3.134;2023-07-29T11:37:30;1.08;;;1.00;;
18104;SDS011;9179;50.968;3.134;2023-07-29T11:39:56;2.67;;;1.30;;
18104;SDS011;9179;50.968;3.134;2023-07-29T11:42:24;1.48;;;1.30;;
18104;SDS011;9179;50.968;3.134;2023-07-29T11:44:52;1.27;;;1.02;;
18104;SDS011;9179;50.968;3.134;2023-07-29T11:47:19;1.70;;;1.25;;
18104;SDS011;9179;50.968;3.134;2023-07-29T11:49:46;1.23;;;1.10;;
18104;SDS011;9179;50.968;3.134;2023-07-29T11:52:13;1.05;;;1.05;;
18104;SDS011;9179;50.968;3.134;2023-07-29T11:54:45;1.35;;;1.00;;
18104;SDS011;9179;50.968;3.134;2023-07-29T11:57:14;1.30;;;1.20;;
18104;SDS011;9179;50.968;3.134;2023-07-29T11:59:43;1.00;;;1.00;;
18104;SDS011;9179;50.968;3.134;2023-07-29T12:02:11;1.40;;;0.93;;
18104;SDS011;9179;50.968;3.134;2023-07-29T12:04:39;1.20;;;1.10;;
18104;SDS011;9179;50.968;3.134;2023-07-29T12:07:07;1.27;;;1.17;;
18104;SDS011;9179;50.968;3.134;2023-07-29T12:09:34;1.67;;;0.93;;
18104;SDS011;9179;50.968;3.134;2023-07-29T12:12:04;1.52;;;1.05;;
18104;SDS011;9179;50.968;3.134;2023-07-29T12:14:32;1.17;;;1.05;;
18104;SDS011;9179;50.968;3.134;2023-07-29T12:16:59;1.42;;;1.10;;
18104;SDS011;9179;50.968;3.134;2023-07-29T12:19:31;1.40;;;1.00;;
18104;SDS011;9179;50.968;3.134;2023-07-29T12:21:59;2.30;;;1.13;;
18104;SDS011;9179;50.968;3.134;2023-07-29T12:24:26;1.52;;;1.42;;
18104;SDS011;9179;50.968;3.134;2023-07-29T12:26:53;1.33;;;1.23;;
18104;SDS011;9179;50.968;3.134;2023-07-29T12:29:21;1.40;;;1.30;;
18104;SDS011;9179;50.968;3.134;2023-07-29T12:31:48;1.30;;;1.15;;
18104;SDS011;9179;50.968;3.134;2023-07-29T12:34:24;2.05;;;1.52;;
18104;SDS011;9179;50.968;3.134;2023-07-29T12:36:52;2.08;;;1.42;;
18104;SDS011;9179;50.968;3.134;2023-07-29T12:39:21;1.30;;;1.20;;
18104;SDS011;9179;50.968;3.134;2023-07-29T12:41:49;1.70;;;1.48;;
18104;SDS011;9179;50.968;3.134;2023-07-29T12:44:17;1.50;;;1.40;;
18104;SDS011;9179;50.968;3.134;2023-07-29T12:46:45;1.60;;;1.50;;
18104;SDS011;9179;50.968;3.134;2023-07-29T12:49:12;1.50;;;1.40;;
18104;SDS011;9179;50.968;3.134;2023-07-29T12:51:40;1.20;;;1.20;;
18104;SDS011;9179;50.968;3.134;2023-07-29T12:54:08;1.10;;;1.10;;
18104;SDS011;9179;50.968;3.134;2023-07-29T12:56:35;1.83;;;1.33;;
18104;SDS011;9179;50.968;3.134;2023-07-29T12:59:02;2.05;;;1.70;;
18104;SDS011;9179;50.968;3.134;2023-07-29T13:01:29;1.80;;;1.70;;
18104;SDS011;9179;50.968;3.134;2023-07-29T13:03:57;1.88;;;1.70;;
18104;SDS011;9179;50.968;3.134;2023-07-29T13:06:24;1.75;;;1.60;;
18104;SDS011;9179;50.968;3.134;2023-07-29T13:08:51;1.85;;;1.75;;
18104;SDS011;9179;50.968;3.134;2023-07-29T13:11:18;1.77;;;1.67;;
18104;SDS011;9179;50.968;3.134;2023-07-29T13:13:45;2.10;;;1.80;;
18104;SDS011;9179;50.968;3.134;2023-07-29T13:16:12;2.15;;;1.35;;
18104;SDS011;9179;50.968;3.134;2023-07-29T13:18:39;1.10;;;1.05;;
18104;SDS011;9179;50.968;3.134;2023-07-29T13:21:08;1.00;;;0.90;;
18104;SDS011;9179;50.968;3.134;2023-07-29T13:23:34;0.70;;;0.60;;
18104;SDS011;9179;50.968;3.134;2023-07-29T13:26:01;0.50;;;0.50;;
18104;SDS011;9179;50.968;3.134;2023-07-29T13:28:28;0.60;;;0.60;;
18104;SDS011;9179;50.968;3.134;2023-07-29T13:30:55;0.68;;;0.57;;
18104;SDS011;9179;50.968;3.134;2023-07-29T13:33:22;1.33;;;0.70;;
18104;SDS011;9179;50.968;3.134;2023-07-29T13:35:48;0.68;;;0.68;;
18104;SDS011;9179;50.968;3.134;2023-07-29T13:38:17;1.05;;;0.52;;
18104;SDS011;9179;50.968;3.134;2023-07-29T13:40:45;0.93;;;0.63;;
18104;SDS011;9179;50.968;3.134;2023-07-29T13:43:11;1.13;;;0.60;;
18104;SDS011;9179;50.968;3.134;2023-07-29T13:45:38;0.65;;;0.65;;
18104;SDS011;9179;50.968;3.134;2023-07-29T13:48:05;0.65;;;0.65;;
18104;SDS011;9179;50.968;3.134;2023-07-29T13:50:32;1.33;;;0.80;;
18104;SDS011;9179;50.968;3.134;2023-07-29T13:52:59;2.58;;;0.82;;
18104;SDS011;9179;50.968;3.134;2023-07-29T13:55:27;0.65;;;0.65;;
18104;SDS011;9179;50.968;3.134;2023-07-29T13:57:54;0.80;;;0.70;;
18104;SDS011;9179;50.968;3.134;2023-07-29T14:00:21;1.85;;;1.08;;
18104;SDS011;9179;50.968;3.134;2023-07-29T14:02:48;1.00;;;0.90;;
18104;SDS011;9179;50.968;3.134;2023-07-29T14:05:15;1.17;;;1.08;;
18104;SDS011;9179;50.968;3.134;2023-07-29T14:07:42;1.42;;;1.08;;
18104;SDS011;9179;50.968;3.134;2023-07-29T14:10:09;2.35;;;1.20;;
18104;SDS011;9179;50.968;3.134;2023-07-29T14:12:37;3.45;;;1.35;;
18104;SDS011;9179;50.968;3.134;2023-07-29T14:15:04;1.20;;;1.10;;
18104;SDS011;9179;50.968;3.134;2023-07-29T14:17:32;1.67;;;0.93;;
18104;SDS011;9179;50.968;3.134;2023-07-29T14:19:59;1.30;;;1.20;;
18104;SDS011;9179;50.968;3.134;2023-07-29T14:22:26;1.80;;;1.15;;
18104;SDS011;9179;50.968;3.134;2023-07-29T14:24:52;2.33;;;1.65;;
18104;SDS011;9179;50.968;3.134;2023-07-29T14:27:19;1.15;;;1.05;;
18104;SDS011;9179;50.968;3.134;2023-07-29T14:29:48;2.65;;;1.38;;
18104;SDS011;9179;50.968;3.134;2023-07-29T14:32:14;2.05;;;1.20;;
18104;SDS011;9179;50.968;3.134;2023-07-29T14:34:41;1.65;;;1.10;;
18104;SDS011;9179;50.968;3.134;2023-07-29T14:37:08;2.38;;;1.42;;
18104;SDS011;9179;50.968;3.134;2023-07-29T14:39:35;1.95;;;1.48;;
18104;SDS011;9179;50.968;3.134;2023-07-29T14:42:02;2.00;;;1.20;;
18104;SDS011;9179;50.968;3.134;2023-07-29T14:44:29;2.95;;;1.55;;
18104;SDS011;9179;50.968;3.134;2023-07-29T14:46:58;2.35;;;1.58;;
18104;SDS011;9179;50.968;3.134;2023-07-29T14:49:25;3.15;;;1.50;;
18104;SDS011;9179;50.968;3.134;2023-07-29T14:51:51;3.85;;;1.65;;
18104;SDS011;9179;50.968;3.134;2023-07-29T14:54:19;2.53;;;1.70;;
18104;SDS011;9179;50.968;3.134;2023-07-29T14:56:46;3.03;;;1.35;;
18104;SDS011;9179;50.968;3.134;2023-07-29T14:59:12;1.52;;;1.20;;
18104;SDS011;9179;50.968;3.134;2023-07-29T15:01:39;3.03;;;1.83;;
18104;SDS011;9179;50.968;3.134;2023-07-29T15:04:07;4.30;;;2.15;;
18104;SDS011;9179;50.968;3.134;2023-07-29T15:06:34;3.00;;;1.50;;
18104;SDS011;9179;50.968;3.134;2023-07-29T15:09:01;2.30;;;1.45;;